sensor_id;sensor_type;location;lat;lon;timestamp;temperature;humidity
21033;DHT22;10675;47.976;7.824;2024-03-23T00:54:04;16.50;72.00
21033;DHT22;10675;47.976;7.824;2024-03-23T00:56:30;16.50;72.10
21033;DHT22;10675;47.976;7.824;2024-03-23T00:58:55;16.40;72.20
21033;DHT22;10675;47.976;7.824;2024-03-23T01:01:21;16.40;71.50
21033;DHT22;10675;47.976;7.824;2024-03-23T01:03:47;16.40;71.80
21033;DHT22;10675;47.976;7.824;2024-03-23T01:06:12;16.40;71.80
21033;DHT22;10675;47.976;7.824;2024-03-23T01:08:38;16.40;71.80
21033;DHT22;10675;47.976;7.824;2024-03-23T01:11:03;16.40;72.00
21033;DHT22;10675;47.976;7.824;2024-03-23T01:13:29;16.30;72.20
21033;DHT22;10675;47.976;7.824;2024-03-23T01:15:56;16.30;72.10
21033;DHT22;10675;47.976;7.824;2024-03-23T01:18:22;16.30;72.40
21033;DHT22;10675;47.976;7.824;2024-03-23T01:20:48;16.30;72.50
21033;DHT22;10675;47.976;7.824;2024-03-23T01:23:14;16.30;72.70
21033;DHT22;10675;47.976;7.824;2024-03-23T01:25:40;16.30;72.90
21033;DHT22;10675;47.976;7.824;2024-03-23T01:28:06;16.30;73.80
21033;DHT22;10675;47.976;7.824;2024-03-23T01:30:33;16.30;73.50
21033;DHT22;10675;47.976;7.824;2024-03-23T01:32:58;16.20;73.60
21033;DHT22;10675;47.976;7.824;2024-03-23T01:35:24;16.30;73.50
21033;DHT22;10675;47.976;7.824;2024-03-23T01:37:49;16.20;73.80
21033;DHT22;10675;47.976;7.824;2024-03-23T01:40:16;16.20;74.00
21033;DHT22;10675;47.976;7.824;2024-03-23T01:42:42;16.20;74.20
21033;DHT22;10675;47.976;7.824;2024-03-23T01:45:08;16.20;74.20
21033;DHT22;10675;47.976;7.824;2024-03-23T01:47:35;16.30;73.50
21033;DHT22;10675;47.976;7.824;2024-03-23T01:50:01;16.20;75.20
21033;DHT22;10675;47.976;7.824;2024-03-23T01:52:27;16.10;75.10
21033;DHT22;10675;47.976;7.824;2024-03-23T01:54:53;16.10;74.10
21033;DHT22;10675;47.976;7.824;2024-03-23T01:57:19;16.10;75.10
21033;DHT22;10675;47.976;7.824;2024-03-23T01:59:46;15.90;75.80
21033;DHT22;10675;47.976;7.824;2024-03-23T02:02:12;15.90;76.20
21033;DHT22;10675;47.976;7.824;2024-03-23T02:04:38;15.90;76.00
21033;DHT22;10675;47.976;7.824;2024-03-23T02:07:06;16.00;75.60
21033;DHT22;10675;47.976;7.824;2024-03-23T02:09:33;16.00;75.70
21033;DHT22;10675;47.976;7.824;2024-03-23T02:11:58;15.90;75.70
21033;DHT22;10675;47.976;7.824;2024-03-23T02:14:26;15.90;76.10
21033;DHT22;10675;47.976;7.824;2024-03-23T02:16:52;15.90;76.60
21033;DHT22;10675;47.976;7.824;2024-03-23T02:19:17;15.80;76.50
21033;DHT22;10675;47.976;7.824;2024-03-23T02:21:43;15.80;77.20
21033;DHT22;10675;47.976;7.824;2024-03-23T02:24:08;15.80;77.40
21033;DHT22;10675;47.976;7.824;2024-03-23T02:26:34;15.70;77.80
21033;DHT22;10675;47.976;7.824;2024-03-23T02:28:59;15.70;77.90
21033;DHT22;10675;47.976;7.824;2024-03-23T02:31:25;15.70;78.10
21033;DHT22;10675;47.976;7.824;2024-03-23T02:33:50;15.60;78.50
21033;DHT22;10675;47.976;7.824;2024-03-23T02:36:16;15.60;78.70
21033;DHT22;10675;47.976;7.824;2024-03-23T02:38:41;15.50;78.80
21033;DHT22;10675;47.976;7.824;2024-03-23T02:41:07;15.50;79.20
21033;DHT22;10675;47.976;7.824;2024-03-23T02:43:32;15.40;79.40
21033;DHT22;10675;47.976;7.824;2024-03-23T02:45:58;15.40;79.40
21033;DHT22;10675;47.976;7.824;2024-03-23T02:48:23;15.40;80.10
21033;DHT22;10675;47.976;7.824;2024-03-23T02:50:49;15.30;80.20
21033;DHT22;10675;47.976;7.824;2024-03-23T02:53:15;15.30;80.30
21033;DHT22;10675;47.976;7.824;2024-03-23T02:55:41;15.30;80.50
21033;DHT22;10675;47.976;7.824;2024-03-23T02:58:06;15.20;80.70
21033;DHT22;10675;47.976;7.824;2024-03-23T03:00:32;15.20;81.10
21033;DHT22;10675;47.976;7.824;2024-03-23T03:02:57;15.10;81.50
21033;DHT22;10675;47.976;7.824;2024-03-23T03:05:23;15.10;81.80
21033;DHT22;10675;47.976;7.824;2024-03-23T03:07:48;15.00;82.30
21033;DHT22;10675;47.976;7.824;2024-03-23T03:10:14;15.10;82.20
21033;DHT22;10675;47.976;7.824;2024-03-23T03:12:40;15.00;82.70
21033;DHT22;10675;47.976;7.824;2024-03-23T03:15:05;15.00;82.70
21033;DHT22;10675;47.976;7.824;2024-03-23T03:17:31;15.10;82.70
21033;DHT22;10675;47.976;7.824;2024-03-23T03:19:57;15.10;83.10
21033;DHT22;10675;47.976;7.824;2024-03-23T03:22:22;15.10;83.40
21033;DHT22;10675;47.976;7.824;2024-03-23T03:24:49;15.00;83.60
21033;DHT22;10675;47.976;7.824;2024-03-23T03:27:14;15.00;83.90
21033;DHT22;10675;47.976;7.824;2024-03-23T03:29:40;15.10;83.90
21033;DHT22;10675;47.976;7.824;2024-03-23T03:32:05;15.00;84.30
21033;DHT22;10675;47.976;7.824;2024-03-23T03:34:31;15.00;84.70
21033;DHT22;10675;47.976;7.824;2024-03-23T03:36:57;15.00;84.80
21033;DHT22;10675;47.976;7.824;2024-03-23T03:39:23;15.00;84.80
21033;DHT22;10675;47.976;7.824;2024-03-23T03:41:49;15.00;84.80
21033;DHT22;10675;47.976;7.824;2024-03-23T03:44:14;14.90;86.40
21033;DHT22;10675;47.976;7.824;2024-03-23T03:46:40;14.90;87.20
21033;DHT22;10675;47.976;7.824;2024-03-23T03:49:05;14.80;87.50
21033;DHT22;10675;47.976;7.824;2024-03-23T03:51:31;14.90;87.10
21033;DHT22;10675;47.976;7.824;2024-03-23T03:53:56;14.80;87.80
21033;DHT22;10675;47.976;7.824;2024-03-23T03:56:22;14.80;88.30
21033;DHT22;10675;47.976;7.824;2024-03-23T03:58:48;14.70;89.20
21033;DHT22;10675;47.976;7.824;2024-03-23T04:01:13;14.70;90.10
21033;DHT22;10675;47.976;7.824;2024-03-23T04:03:39;14.60;90.50
21033;DHT22;10675;47.976;7.824;2024-03-23T04:06:11;14.50;90.50
21033;DHT22;10675;47.976;7.824;2024-03-23T04:08:37;14.50;90.50
21033;DHT22;10675;47.976;7.824;2024-03-23T04:11:02;14.50;90.50
21033;DHT22;10675;47.976;7.824;2024-03-23T04:13:28;14.50;90.60
21033;DHT22;10675;47.976;7.824;2024-03-23T04:15:55;14.50;90.50
21033;DHT22;10675;47.976;7.824;2024-03-23T04:18:21;14.50;90.90
21033;DHT22;10675;47.976;7.824;2024-03-23T04:20:47;14.50;91.10
21033;DHT22;10675;47.976;7.824;2024-03-23T04:23:12;14.40;91.00
21033;DHT22;10675;47.976;7.824;2024-03-23T04:25:38;14.40;91.90
21033;DHT22;10675;47.976;7.824;2024-03-23T04:28:04;14.30;92.40
21033;DHT22;10675;47.976;7.824;2024-03-23T04:30:30;14.20;92.80
21033;DHT22;10675;47.976;7.824;2024-03-23T04:32:57;14.10;93.40
21033;DHT22;10675;47.976;7.824;2024-03-23T04:35:24;14.10;93.40
21033;DHT22;10675;47.976;7.824;2024-03-23T04:37:51;14.10;93.60
21033;DHT22;10675;47.976;7.824;2024-03-23T04:40:17;14.00;93.70
21033;DHT22;10675;47.976;7.824;2024-03-23T04:42:43;14.10;93.90
21033;DHT22;10675;47.976;7.824;2024-03-23T04:45:09;14.10;94.20
21033;DHT22;10675;47.976;7.824;2024-03-23T04:47:36;14.10;94.20
21033;DHT22;10675;47.976;7.824;2024-03-23T04:50:03;14.10;94.50
21033;DHT22;10675;47.976;7.824;2024-03-23T04:52:29;14.10;94.50
21033;DHT22;10675;47.976;7.824;2024-03-23T04:54:55;14.00;95.10
21033;DHT22;10675;47.976;7.824;2024-03-23T04:57:21;13.90;96.50
21033;DHT22;10675;47.976;7.824;2024-03-23T04:59:46;13.80;96.90
21033;DHT22;10675;47.976;7.824;2024-03-23T05:02:12;13.70;97.70
21033;DHT22;10675;47.976;7.824;2024-03-23T05:04:38;13.60;99.30
21033;DHT22;10675;47.976;7.824;2024-03-23T05:07:04;13.50;99.90
21033;DHT22;10675;47.976;7.824;2024-03-23T05:09:30;13.40;99.90
21033;DHT22;10675;47.976;7.824;2024-03-23T05:11:56;13.30;99.90
21033;DHT22;10675;47.976;7.824;2024-03-23T05:14:22;13.20;99.90
21033;DHT22;10675;47.976;7.824;2024-03-23T05:16:47;13.20;99.90
21033;DHT22;10675;47.976;7.824;2024-03-23T05:19:13;13.20;99.90
21033;DHT22;10675;47.976;7.824;2024-03-23T05:21:39;13.20;99.90
21033;DHT22;10675;47.976;7.824;2024-03-23T05:24:05;13.30;99.90
21033;DHT22;10675;47.976;7.824;2024-03-23T05:26:30;13.30;99.90
21033;DHT22;10675;47.976;7.824;2024-03-23T05:28:56;13.20;99.90
21033;DHT22;10675;47.976;7.824;2024-03-23T05:31:25;13.00;99.90
21033;DHT22;10675;47.976;7.824;2024-03-23T05:33:51;13.00;99.90
21033;DHT22;10675;47.976;7.824;2024-03-23T05:36:17;13.00;99.90
21033;DHT22;10675;47.976;7.824;2024-03-23T05:38:43;12.90;99.90
21033;DHT22;10675;47.976;7.824;2024-03-23T05:41:09;12.80;99.90
21033;DHT22;10675;47.976;7.824;2024-03-23T05:43:34;12.90;99.90
21033;DHT22;10675;47.976;7.824;2024-03-23T05:46:00;12.80;99.90
21033;DHT22;10675;47.976;7.824;2024-03-23T05:48:27;12.90;99.90
21033;DHT22;10675;47.976;7.824;2024-03-23T05:50:53;12.80;99.90
21033;DHT22;10675;47.976;7.824;2024-03-23T05:53:19;12.80;99.90
21033;DHT22;10675;47.976;7.824;2024-03-23T05:55:48;12.80;99.90
21033;DHT22;10675;47.976;7.824;2024-03-23T05:58:15;12.80;99.90
21033;DHT22;10675;47.976;7.824;2024-03-23T06:00:42;12.70;99.90
21033;DHT22;10675;47.976;7.824;2024-03-23T06:03:08;12.70;99.90
21033;DHT22;10675;47.976;7.824;2024-03-23T06:05:34;12.70;99.90
21033;DHT22;10675;47.976;7.824;2024-03-23T06:07:59;12.50;99.90
21033;DHT22;10675;47.976;7.824;2024-03-23T06:10:25;12.30;99.90
21033;DHT22;10675;47.976;7.824;2024-03-23T06:12:50;12.10;99.90
21033;DHT22;10675;47.976;7.824;2024-03-23T06:15:18;11.70;99.90
21033;DHT22;10675;47.976;7.824;2024-03-23T06:17:44;11.50;99.90
21033;DHT22;10675;47.976;7.824;2024-03-23T06:20:09;11.40;99.90
21033;DHT22;10675;47.976;7.824;2024-03-23T06:22:36;11.10;99.90
21033;DHT22;10675;47.976;7.824;2024-03-23T06:25:02;11.00;99.90
21033;DHT22;10675;47.976;7.824;2024-03-23T06:27:27;11.00;99.90
21033;DHT22;10675;47.976;7.824;2024-03-23T06:29:53;10.90;99.90
21033;DHT22;10675;47.976;7.824;2024-03-23T06:32:18;10.90;99.90
21033;DHT22;10675;47.976;7.824;2024-03-23T06:34:44;10.90;99.90
21033;DHT22;10675;47.976;7.824;2024-03-23T06:37:11;10.70;99.90
21033;DHT22;10675;47.976;7.824;2024-03-23T06:39:37;10.20;99.90
21033;DHT22;10675;47.976;7.824;2024-03-23T06:42:03;10.10;99.90
21033;DHT22;10675;47.976;7.824;2024-03-23T06:44:29;10.10;99.90
21033;DHT22;10675;47.976;7.824;2024-03-23T06:46:54;10.10;99.90
21033;DHT22;10675;47.976;7.824;2024-03-23T06:49:20;10.10;99.90
21033;DHT22;10675;47.976;7.824;2024-03-23T06:51:46;10.10;99.90
21033;DHT22;10675;47.976;7.824;2024-03-23T06:54:11;10.10;99.90
21033;DHT22;10675;47.976;7.824;2024-03-23T06:56:37;10.10;99.90
21033;DHT22;10675;47.976;7.824;2024-03-23T06:59:02;9.90;99.90
21033;DHT22;10675;47.976;7.824;2024-03-23T07:01:28;9.90;99.90
21033;DHT22;10675;47.976;7.824;2024-03-23T07:03:54;9.90;99.90
21033;DHT22;10675;47.976;7.824;2024-03-23T07:06:20;9.90;99.90
21033;DHT22;10675;47.976;7.824;2024-03-23T07:08:45;10.10;99.90
21033;DHT22;10675;47.976;7.824;2024-03-23T07:11:11;10.20;99.90
21033;DHT22;10675;47.976;7.824;2024-03-23T07:13:36;10.10;99.90
21033;DHT22;10675;47.976;7.824;2024-03-23T07:16:02;10.10;99.90
21033;DHT22;10675;47.976;7.824;2024-03-23T07:18:28;10.10;99.90
21033;DHT22;10675;47.976;7.824;2024-03-23T07:20:54;10.20;99.90
21033;DHT22;10675;47.976;7.824;2024-03-23T07:23:22;10.20;99.90
21033;DHT22;10675;47.976;7.824;2024-03-23T07:26:00;10.10;99.90
21033;DHT22;10675;47.976;7.824;2024-03-23T07:28:26;10.10;99.90
21033;DHT22;10675;47.976;7.824;2024-03-23T07:33:31;10.00;99.90
21033;DHT22;10675;47.976;7.824;2024-03-23T07:35:57;10.10;99.90
21033;DHT22;10675;47.976;7.824;2024-03-23T07:38:26;10.00;99.90
21033;DHT22;10675;47.976;7.824;2024-03-23T07:40:51;10.10;99.90
21033;DHT22;10675;47.976;7.824;2024-03-23T07:43:21;10.00;99.90
21033;DHT22;10675;47.976;7.824;2024-03-23T07:45:53;10.00;99.90
21033;DHT22;10675;47.976;7.824;2024-03-23T07:48:20;9.80;99.90
21033;DHT22;10675;47.976;7.824;2024-03-23T07:50:57;9.90;99.90
21033;DHT22;10675;47.976;7.824;2024-03-23T07:53:22;10.00;99.90
21033;DHT22;10675;47.976;7.824;2024-03-23T07:56:01;9.90;99.90
21033;DHT22;10675;47.976;7.824;2024-03-23T07:58:27;9.80;99.90
21033;DHT22;10675;47.976;7.824;2024-03-23T08:00:56;9.60;99.90
21033;DHT22;10675;47.976;7.824;2024-03-23T08:03:22;9.50;99.90
21033;DHT22;10675;47.976;7.824;2024-03-23T08:05:48;9.40;99.90
21033;DHT22;10675;47.976;7.824;2024-03-23T08:08:14;9.20;99.90
21033;DHT22;10675;47.976;7.824;2024-03-23T08:10:50;9.40;99.90
21033;DHT22;10675;47.976;7.824;2024-03-23T08:13:16;9.30;99.90
21033;DHT22;10675;47.976;7.824;2024-03-23T08:15:41;9.30;99.90
21033;DHT22;10675;47.976;7.824;2024-03-23T08:18:07;9.30;99.90
21033;DHT22;10675;47.976;7.824;2024-03-23T08:20:33;9.40;99.90
21033;DHT22;10675;47.976;7.824;2024-03-23T08:22:58;9.40;99.90
21033;DHT22;10675;47.976;7.824;2024-03-23T08:25:24;9.40;99.90
21033;DHT22;10675;47.976;7.824;2024-03-23T08:27:49;9.40;99.90
21033;DHT22;10675;47.976;7.824;2024-03-23T08:30:15;9.50;99.90
21033;DHT22;10675;47.976;7.824;2024-03-23T08:32:41;9.70;99.90
21033;DHT22;10675;47.976;7.824;2024-03-23T08:35:07;9.80;99.90
21033;DHT22;10675;47.976;7.824;2024-03-23T08:37:33;9.80;99.90
21033;DHT22;10675;47.976;7.824;2024-03-23T08:39:58;9.90;99.90
21033;DHT22;10675;47.976;7.824;2024-03-23T08:44:50;9.90;99.90
21033;DHT22;10675;47.976;7.824;2024-03-23T08:47:16;9.90;99.90
21033;DHT22;10675;47.976;7.824;2024-03-23T08:49:41;10.00;99.90
21033;DHT22;10675;47.976;7.824;2024-03-23T08:52:07;9.90;90.20
21033;DHT22;10675;47.976;7.824;2024-03-23T08:54:33;9.80;90.70
21033;DHT22;10675;47.976;7.824;2024-03-23T08:56:59;10.00;90.60
21033;DHT22;10675;47.976;7.824;2024-03-23T08:59:25;10.10;90.30
21033;DHT22;10675;47.976;7.824;2024-03-23T09:01:50;10.00;90.40
21033;DHT22;10675;47.976;7.824;2024-03-23T09:04:16;10.10;90.50
21033;DHT22;10675;47.976;7.824;2024-03-23T09:06:44;10.00;89.20
21033;DHT22;10675;47.976;7.824;2024-03-23T09:09:10;10.00;90.10
21033;DHT22;10675;47.976;7.824;2024-03-23T09:11:35;9.90;90.30
21033;DHT22;10675;47.976;7.824;2024-03-23T09:14:01;9.90;90.90
21033;DHT22;10675;47.976;7.824;2024-03-23T09:16:26;10.10;91.30
21033;DHT22;10675;47.976;7.824;2024-03-23T09:18:52;9.90;91.70
21033;DHT22;10675;47.976;7.824;2024-03-23T09:21:18;10.10;91.90
21033;DHT22;10675;47.976;7.824;2024-03-23T09:23:44;10.20;91.20
21033;DHT22;10675;47.976;7.824;2024-03-23T09:26:10;10.20;90.80
21033;DHT22;10675;47.976;7.824;2024-03-23T09:28:36;10.00;90.90
21033;DHT22;10675;47.976;7.824;2024-03-23T09:31:08;10.30;91.60
21033;DHT22;10675;47.976;7.824;2024-03-23T09:33:36;10.10;90.70
21033;DHT22;10675;47.976;7.824;2024-03-23T09:36:05;10.40;91.30
21033;DHT22;10675;47.976;7.824;2024-03-23T09:38:31;10.90;91.30
21033;DHT22;10675;47.976;7.824;2024-03-23T09:40:58;10.80;89.50
21033;DHT22;10675;47.976;7.824;2024-03-23T09:43:24;10.60;86.40
21033;DHT22;10675;47.976;7.824;2024-03-23T09:45:50;11.10;87.70
21033;DHT22;10675;47.976;7.824;2024-03-23T09:48:16;11.20;86.80
21033;DHT22;10675;47.976;7.824;2024-03-23T09:50:44;11.30;86.80
21033;DHT22;10675;47.976;7.824;2024-03-23T09:53:12;11.30;84.70
21033;DHT22;10675;47.976;7.824;2024-03-23T09:55:42;11.20;84.90
21033;DHT22;10675;47.976;7.824;2024-03-23T09:58:08;11.10;83.60
21033;DHT22;10675;47.976;7.824;2024-03-23T10:00:37;11.30;85.20
21033;DHT22;10675;47.976;7.824;2024-03-23T10:03:03;11.30;81.50
21033;DHT22;10675;47.976;7.824;2024-03-23T10:05:31;11.10;82.50
21033;DHT22;10675;47.976;7.824;2024-03-23T10:07:59;10.90;82.90
21033;DHT22;10675;47.976;7.824;2024-03-23T10:10:26;10.80;82.50
21033;DHT22;10675;47.976;7.824;2024-03-23T10:12:51;10.70;82.90
21033;DHT22;10675;47.976;7.824;2024-03-23T10:15:23;10.60;83.60
21033;DHT22;10675;47.976;7.824;2024-03-23T10:17:49;10.50;84.20
21033;DHT22;10675;47.976;7.824;2024-03-23T10:20:22;10.70;84.90
21033;DHT22;10675;47.976;7.824;2024-03-23T10:22:51;10.70;87.20
21033;DHT22;10675;47.976;7.824;2024-03-23T10:25:17;10.90;82.20
21033;DHT22;10675;47.976;7.824;2024-03-23T10:27:58;10.70;81.70
21033;DHT22;10675;47.976;7.824;2024-03-23T10:30:24;10.60;80.30
21033;DHT22;10675;47.976;7.824;2024-03-23T10:33:06;10.40;80.10
21033;DHT22;10675;47.976;7.824;2024-03-23T10:35:32;10.60;84.90
21033;DHT22;10675;47.976;7.824;2024-03-23T10:37:57;10.50;85.10
21033;DHT22;10675;47.976;7.824;2024-03-23T10:40:23;9.50;92.20
21033;DHT22;10675;47.976;7.824;2024-03-23T10:42:50;8.90;94.90
21033;DHT22;10675;47.976;7.824;2024-03-23T10:45:16;8.80;97.40
21033;DHT22;10675;47.976;7.824;2024-03-23T10:47:42;8.10;98.30
21033;DHT22;10675;47.976;7.824;2024-03-23T10:50:08;7.60;99.90
21033;DHT22;10675;47.976;7.824;2024-03-23T10:52:34;7.60;99.90
21033;DHT22;10675;47.976;7.824;2024-03-23T10:55:04;7.70;99.90
21033;DHT22;10675;47.976;7.824;2024-03-23T10:57:40;7.60;99.90
21033;DHT22;10675;47.976;7.824;2024-03-23T11:00:07;7.40;99.90
21033;DHT22;10675;47.976;7.824;2024-03-23T11:02:34;7.40;99.90
21033;DHT22;10675;47.976;7.824;2024-03-23T11:04:59;7.60;99.90
21033;DHT22;10675;47.976;7.824;2024-03-23T11:09:53;7.70;99.90
21033;DHT22;10675;47.976;7.824;2024-03-23T11:14:52;7.80;99.90
21033;DHT22;10675;47.976;7.824;2024-03-23T11:17:18;8.00;99.90
21033;DHT22;10675;47.976;7.824;2024-03-23T11:19:44;8.20;99.90
21033;DHT22;10675;47.976;7.824;2024-03-23T11:22:10;8.30;99.90
21033;DHT22;10675;47.976;7.824;2024-03-23T11:24:35;8.50;99.90
21033;DHT22;10675;47.976;7.824;2024-03-23T11:27:02;8.90;99.90
21033;DHT22;10675;47.976;7.824;2024-03-23T11:29:40;8.90;99.90
21033;DHT22;10675;47.976;7.824;2024-03-23T11:32:10;8.90;99.90
21033;DHT22;10675;47.976;7.824;2024-03-23T11:34:35;8.90;99.90
21033;DHT22;10675;47.976;7.824;2024-03-23T11:37:04;8.90;99.90
21033;DHT22;10675;47.976;7.824;2024-03-23T11:39:31;8.90;99.90
21033;DHT22;10675;47.976;7.824;2024-03-23T11:41:57;8.80;99.90
21033;DHT22;10675;47.976;7.824;2024-03-23T11:44:26;8.80;99.90
21033;DHT22;10675;47.976;7.824;2024-03-23T11:46:52;8.80;99.90
21033;DHT22;10675;47.976;7.824;2024-03-23T11:49:28;8.80;99.90
21033;DHT22;10675;47.976;7.824;2024-03-23T11:51:55;8.90;99.90
21033;DHT22;10675;47.976;7.824;2024-03-23T11:54:22;8.90;99.90
21033;DHT22;10675;47.976;7.824;2024-03-23T11:57:01;9.00;99.90
21033;DHT22;10675;47.976;7.824;2024-03-23T11:59:39;9.30;99.90
21033;DHT22;10675;47.976;7.824;2024-03-23T12:02:13;9.50;99.90
21033;DHT22;10675;47.976;7.824;2024-03-23T12:04:42;9.60;99.90
21033;DHT22;10675;47.976;7.824;2024-03-23T12:07:17;9.60;99.90
21033;DHT22;10675;47.976;7.824;2024-03-23T12:09:49;10.10;99.90
21033;DHT22;10675;47.976;7.824;2024-03-23T12:12:27;10.60;99.90
21033;DHT22;10675;47.976;7.824;2024-03-23T12:15:06;10.90;99.90
21033;DHT22;10675;47.976;7.824;2024-03-23T12:17:33;11.00;99.60
21033;DHT22;10675;47.976;7.824;2024-03-23T12:20:00;11.10;98.10
21033;DHT22;10675;47.976;7.824;2024-03-23T12:22:26;10.90;96.20
21033;DHT22;10675;47.976;7.824;2024-03-23T12:24:52;11.00;96.70
21033;DHT22;10675;47.976;7.824;2024-03-23T12:27:18;10.90;95.20
21033;DHT22;10675;47.976;7.824;2024-03-23T12:29:43;10.50;93.90
21033;DHT22;10675;47.976;7.824;2024-03-23T12:32:11;10.50;94.00
21033;DHT22;10675;47.976;7.824;2024-03-23T12:34:37;10.30;92.90
21033;DHT22;10675;47.976;7.824;2024-03-23T12:37:03;10.30;92.80
21033;DHT22;10675;47.976;7.824;2024-03-23T12:39:28;10.40;93.70
21033;DHT22;10675;47.976;7.824;2024-03-23T12:41:54;10.20;92.80
21033;DHT22;10675;47.976;7.824;2024-03-23T12:44:19;10.80;91.50
21033;DHT22;10675;47.976;7.824;2024-03-23T12:46:46;10.90;92.00
21033;DHT22;10675;47.976;7.824;2024-03-23T12:49:12;11.90;95.00
21033;DHT22;10675;47.976;7.824;2024-03-23T12:51:38;11.90;90.20
21033;DHT22;10675;47.976;7.824;2024-03-23T12:54:03;11.80;90.80
21033;DHT22;10675;47.976;7.824;2024-03-23T12:56:30;11.70;91.20
21033;DHT22;10675;47.976;7.824;2024-03-23T12:58:58;11.60;89.60
21033;DHT22;10675;47.976;7.824;2024-03-23T13:01:24;11.70;90.50
21033;DHT22;10675;47.976;7.824;2024-03-23T13:03:50;11.50;87.00
21033;DHT22;10675;47.976;7.824;2024-03-23T13:06:17;11.40;90.70
21033;DHT22;10675;47.976;7.824;2024-03-23T13:08:46;10.90;91.60
21033;DHT22;10675;47.976;7.824;2024-03-23T13:11:13;10.60;92.00
21033;DHT22;10675;47.976;7.824;2024-03-23T13:13:40;10.50;91.50
21033;DHT22;10675;47.976;7.824;2024-03-23T13:16:07;10.30;90.40
21033;DHT22;10675;47.976;7.824;2024-03-23T13:18:33;10.50;91.20
21033;DHT22;10675;47.976;7.824;2024-03-23T13:20:59;10.50;89.30
21033;DHT22;10675;47.976;7.824;2024-03-23T13:23:25;10.40;89.50
21033;DHT22;10675;47.976;7.824;2024-03-23T13:25:51;10.30;85.10
21033;DHT22;10675;47.976;7.824;2024-03-23T13:28:21;10.20;81.20
21033;DHT22;10675;47.976;7.824;2024-03-23T13:30:53;10.50;80.70
21033;DHT22;10675;47.976;7.824;2024-03-23T13:33:19;10.70;79.80
21033;DHT22;10675;47.976;7.824;2024-03-23T13:35:55;10.60;77.30
21033;DHT22;10675;47.976;7.824;2024-03-23T13:38:22;10.60;78.60
21033;DHT22;10675;47.976;7.824;2024-03-23T13:40:55;10.90;79.50
21033;DHT22;10675;47.976;7.824;2024-03-23T13:43:22;11.00;78.50
21033;DHT22;10675;47.976;7.824;2024-03-23T13:45:54;11.10;77.80
21033;DHT22;10675;47.976;7.824;2024-03-23T13:48:20;10.90;75.80
21033;DHT22;10675;47.976;7.824;2024-03-23T13:50:47;11.00;72.70
21033;DHT22;10675;47.976;7.824;2024-03-23T13:53:15;11.20;72.20
21033;DHT22;10675;47.976;7.824;2024-03-23T13:55:47;10.90;70.10
21033;DHT22;10675;47.976;7.824;2024-03-23T13:58:16;11.50;70.30
21033;DHT22;10675;47.976;7.824;2024-03-23T14:00:42;12.10;67.00
21033;DHT22;10675;47.976;7.824;2024-03-23T14:03:11;12.00;59.80
21033;DHT22;10675;47.976;7.824;2024-03-23T14:05:37;11.50;59.50
21033;DHT22;10675;47.976;7.824;2024-03-23T14:08:09;11.40;60.30
21033;DHT22;10675;47.976;7.824;2024-03-23T14:10:36;12.20;59.40
21033;DHT22;10675;47.976;7.824;2024-03-23T14:13:02;12.30;58.10
21033;DHT22;10675;47.976;7.824;2024-03-23T14:15:28;11.80;59.50
21033;DHT22;10675;47.976;7.824;2024-03-23T14:17:55;11.60;59.50
21033;DHT22;10675;47.976;7.824;2024-03-23T14:20:21;11.20;60.60
21033;DHT22;10675;47.976;7.824;2024-03-23T14:22:48;11.20;61.60
21033;DHT22;10675;47.976;7.824;2024-03-23T14:25:13;11.10;61.20
21033;DHT22;10675;47.976;7.824;2024-03-23T14:27:39;10.90;62.20
21033;DHT22;10675;47.976;7.824;2024-03-23T14:30:05;10.90;63.30
21033;DHT22;10675;47.976;7.824;2024-03-23T14:32:31;11.30;64.10
21033;DHT22;10675;47.976;7.824;2024-03-23T14:35:06;10.90;63.40
21033;DHT22;10675;47.976;7.824;2024-03-23T14:37:38;10.70;63.60
21033;DHT22;10675;47.976;7.824;2024-03-23T14:40:04;10.50;64.70
21033;DHT22;10675;47.976;7.824;2024-03-23T14:42:30;10.40;64.30
21033;DHT22;10675;47.976;7.824;2024-03-23T14:44:57;10.30;63.90
21033;DHT22;10675;47.976;7.824;2024-03-23T14:47:23;10.10;64.40
21033;DHT22;10675;47.976;7.824;2024-03-23T14:49:48;9.90;66.10
21033;DHT22;10675;47.976;7.824;2024-03-23T14:52:16;9.70;68.30
21033;DHT22;10675;47.976;7.824;2024-03-23T14:54:42;9.50;71.90
21033;DHT22;10675;47.976;7.824;2024-03-23T14:57:08;9.50;74.70
21033;DHT22;10675;47.976;7.824;2024-03-23T14:59:35;9.60;73.50
21033;DHT22;10675;47.976;7.824;2024-03-23T15:02:00;9.80;73.70
21033;DHT22;10675;47.976;7.824;2024-03-23T15:04:26;9.90;72.20
21033;DHT22;10675;47.976;7.824;2024-03-23T15:06:51;10.00;72.60
21033;DHT22;10675;47.976;7.824;2024-03-23T15:09:17;10.00;71.90
21033;DHT22;10675;47.976;7.824;2024-03-23T15:11:43;10.00;72.20
21033;DHT22;10675;47.976;7.824;2024-03-23T15:14:09;9.70;73.00
21033;DHT22;10675;47.976;7.824;2024-03-23T15:16:36;9.90;73.50
21033;DHT22;10675;47.976;7.824;2024-03-23T15:19:02;9.90;74.00
21033;DHT22;10675;47.976;7.824;2024-03-23T15:21:27;10.00;74.00
21033;DHT22;10675;47.976;7.824;2024-03-23T15:23:53;10.10;73.90
21033;DHT22;10675;47.976;7.824;2024-03-23T15:26:19;10.20;74.60
21033;DHT22;10675;47.976;7.824;2024-03-23T15:28:48;10.00;75.40
21033;DHT22;10675;47.976;7.824;2024-03-23T15:31:23;9.90;76.20
21033;DHT22;10675;47.976;7.824;2024-03-23T15:33:48;10.20;79.00
21033;DHT22;10675;47.976;7.824;2024-03-23T15:36:14;9.80;76.80
21033;DHT22;10675;47.976;7.824;2024-03-23T15:38:40;9.70;76.50
21033;DHT22;10675;47.976;7.824;2024-03-23T15:41:05;9.70;77.40
21033;DHT22;10675;47.976;7.824;2024-03-23T15:43:31;9.60;77.70
21033;DHT22;10675;47.976;7.824;2024-03-23T15:45:57;9.60;77.70
21033;DHT22;10675;47.976;7.824;2024-03-23T15:48:23;9.50;77.10
21033;DHT22;10675;47.976;7.824;2024-03-23T15:50:56;9.40;77.00
21033;DHT22;10675;47.976;7.824;2024-03-23T15:53:22;9.40;76.20
21033;DHT22;10675;47.976;7.824;2024-03-23T15:55:59;9.30;76.10
21033;DHT22;10675;47.976;7.824;2024-03-23T15:58:26;9.20;76.40
21033;DHT22;10675;47.976;7.824;2024-03-23T16:00:59;9.20;75.70
21033;DHT22;10675;47.976;7.824;2024-03-23T16:03:26;9.20;76.10
21033;DHT22;10675;47.976;7.824;2024-03-23T16:06:05;9.00;77.10
21033;DHT22;10675;47.976;7.824;2024-03-23T16:08:32;9.00;79.50
21033;DHT22;10675;47.976;7.824;2024-03-23T16:11:03;8.20;87.50
21033;DHT22;10675;47.976;7.824;2024-03-23T16:13:29;7.50;93.30
21033;DHT22;10675;47.976;7.824;2024-03-23T16:16:04;6.90;99.40
21033;DHT22;10675;47.976;7.824;2024-03-23T16:18:34;7.00;99.90
21033;DHT22;10675;47.976;7.824;2024-03-23T16:21:01;6.70;99.90
21033;DHT22;10675;47.976;7.824;2024-03-23T16:23:27;6.30;99.90
21033;DHT22;10675;47.976;7.824;2024-03-23T16:25:54;6.40;99.90
21033;DHT22;10675;47.976;7.824;2024-03-23T16:28:24;6.50;99.90
21033;DHT22;10675;47.976;7.824;2024-03-23T16:30:54;6.50;99.90
21033;DHT22;10675;47.976;7.824;2024-03-23T16:33:20;6.60;99.90
21033;DHT22;10675;47.976;7.824;2024-03-23T16:35:55;6.70;99.90